Time;durP1;ratioP1;P1;durP2;ratioP2;P2;SDS_P1;SDS_P2;PMS_P1;PMS_P2;Temp;Humidity;BMP_temperature;BMP_pressure;BME280_temperature;BME280_humidity;BME280_pressure;Samples;Min_cycle;Max_cycle;Signal;HPM_P1;HPM_P2
2022/05/12 00:02:55;;;;;;;4.27;2.60;;;20.10;65.30;;;;;;10344859;28;20245;-72
2022/05/12 00:07:55;;;;;;;2.60;2.40;;;20.00;65.80;;;;;;10350255;28;20257;-73
2022/05/12 00:12:59;;;;;;;4.40;2.70;;;20.00;66.10;;;;;;10359172;28;20825;-71
2022/05/12 00:18:04;;;;;;;3.90;2.23;;;19.90;66.60;;;;;;10359556;28;20271;-72
2022/05/12 00:23:14;;;;;;;7.50;2.17;;;19.90;65.30;;;;;;10358434;28;20279;-73
2022/05/12 00:28:16;;;;;;;7.37;2.30;;;20.00;63.60;;;;;;10363821;28;20229;-72
2022/05/12 00:33:18;;;;;;;8.80;2.30;;;20.20;62.40;;;;;;10339225;28;20237;-71
2022/05/12 00:38:19;;;;;;;4.40;1.80;;;20.40;61.80;;;;;;10358893;28;20662;-71
2022/05/12 00:43:31;;;;;;;4.23;1.87;;;20.40;61.50;;;;;;10358838;28;20228;-70
2022/05/12 00:48:33;;;;;;;3.30;1.50;;;20.40;61.70;;;;;;10347983;28;20221;-71
2022/05/12 00:53:34;;;;;;;2.00;1.80;;;20.40;62.00;;;;;;10357283;28;20726;-72
2022/05/12 00:58:35;;;;;;;5.60;2.63;;;20.40;62.20;;;;;;10369714;28;20251;-72
2022/05/12 01:03:39;;;;;;;6.67;2.00;;;20.40;62.40;;;;;;10369013;28;20442;-71
2022/05/12 01:08:41;;;;;;;3.07;1.63;;;20.30;62.80;;;;;;10366110;28;20222;-72
2022/05/12 01:13:47;;;;;;;3.43;1.50;;;20.30;63.50;;;;;;10364021;28;20233;-72
2022/05/12 01:18:48;;;;;;;4.00;1.90;;;20.20;63.80;;;;;;10371010;28;20233;-71
2022/05/12 01:23:49;;;;;;;2.47;1.83;;;20.10;64.40;;;;;;10365876;28;20213;-71
2022/05/12 01:28:50;;;;;;;5.50;1.97;;;20.00;65.10;;;;;;10351608;28;20248;-71
2022/05/12 01:33:51;;;;;;;2.60;1.60;;;19.90;65.80;;;;;;10363675;28;20565;-71
2022/05/12 01:38:55;;;;;;;3.73;1.83;;;19.90;66.50;;;;;;10369828;28;20311;-71
2022/05/12 01:43:56;;;;;;;4.97;2.10;;;19.80;67.10;;;;;;10347911;28;20722;-71
2022/05/12 01:48:56;;;;;;;3.23;2.10;;;19.70;68.70;;;;;;10371259;28;20249;-72
2022/05/12 01:53:57;;;;;;;2.90;2.17;;;19.50;70.20;;;;;;10348779;28;20217;-72
2022/05/12 01:58:58;;;;;;;4.33;2.23;;;19.40;72.10;;;;;;10364533;28;20220;-72
2022/05/12 02:03:58;;;;;;;6.37;2.87;;;19.20;73.30;;;;;;10364376;28;20764;-72
2022/05/12 02:08:59;;;;;;;4.23;2.60;;;19.00;74.90;;;;;;10345772;28;20228;-72
2022/05/12 02:14:01;;;;;;;3.63;2.47;;;18.80;76.50;;;;;;10363823;28;20216;-71
2022/05/12 02:19:05;;;;;;;3.07;2.70;;;18.70;78.00;;;;;;10346544;28;20794;-71
2022/05/12 02:24:06;;;;;;;3.00;2.47;;;18.50;79.20;;;;;;10366523;28;20302;-72
2022/05/12 02:29:07;;;;;;;4.50;2.40;;;18.30;80.20;;;;;;10344230;28;20627;-71
2022/05/12 02:34:07;;;;;;;3.27;2.30;;;18.20;81.20;;;;;;10361764;28;20217;-72
2022/05/12 02:39:08;;;;;;;5.17;2.77;;;18.10;81.60;;;;;;10361913;28;20748;-72
2022/05/12 02:44:08;;;;;;;4.47;2.70;;;18.10;82.50;;;;;;10360785;28;20703;-72
2022/05/12 02:49:09;;;;;;;3.93;2.50;;;18.00;83.60;;;;;;10361186;28;20695;-71
2022/05/12 02:54:13;;;;;;;2.80;2.50;;;17.90;84.60;;;;;;10364296;28;20224;-72
2022/05/12 02:59:14;;;;;;;5.23;2.60;;;17.80;85.60;;;;;;10358749;28;20264;-71
2022/05/12 03:04:14;;;;;;;3.47;2.40;;;17.70;86.50;;;;;;10365816;28;20596;-71
2022/05/12 03:09:15;;;;;;;4.00;2.40;;;17.70;87.20;;;;;;10347702;28;20232;-72
2022/05/12 03:14:16;;;;;;;2.37;2.10;;;17.70;88.30;;;;;;10377596;28;20690;-72
2022/05/12 03:19:16;;;;;;;3.20;2.30;;;17.60;89.90;;;;;;10349198;28;20264;-72
2022/05/12 03:24:18;;;;;;;5.47;2.20;;;17.60;90.50;;;;;;10347008;28;20307;-71
2022/05/12 03:29:19;;;;;;;2.97;2.30;;;17.70;91.00;;;;;;10342272;28;20244;-71
2022/05/12 03:34:19;;;;;;;4.70;2.40;;;17.80;91.20;;;;;;10364172;28;20304;-72
2022/05/12 03:39:21;;;;;;;3.30;2.00;;;18.00;91.50;;;;;;10360499;28;20229;-72
2022/05/12 03:49:44;;;;;;;3.17;1.87;;;18.20;91.60;;;;;;10358128;28;20224;-71
2022/05/12 03:54:45;;;;;;;3.47;2.63;;;18.30;91.80;;;;;;10346903;28;20662;-71
2022/05/12 03:59:49;;;;;;;2.97;2.00;;;18.40;92.00;;;;;;10360163;28;20362;-71
2022/05/12 04:04:49;;;;;;;3.20;1.87;;;18.50;92.10;;;;;;10359685;28;20221;-71
2022/05/12 04:09:50;;;;;;;4.10;1.87;;;18.50;92.30;;;;;;10341493;28;20216;-71
2022/05/12 04:14:52;;;;;;;4.03;1.93;;;18.50;92.60;;;;;;10362993;28;20225;-69
2022/05/12 04:19:53;;;;;;;5.20;1.63;;;18.50;92.80;;;;;;10356855;28;20361;-71
2022/05/12 04:24:54;;;;;;;2.17;1.97;;;18.50;93.20;;;;;;10360639;28;20327;-70
2022/05/12 04:29:55;;;;;;;3.17;2.20;;;18.40;93.70;;;;;;10356058;28;20217;-71
2022/05/12 04:40:27;;;;;;;3.53;2.30;;;18.50;94.40;;;;;;10367628;28;20232;-70
2022/05/12 04:45:31;;;;;;;5.33;2.23;;;18.60;94.40;;;;;;10365358;28;20282;-71
2022/05/12 04:50:36;;;;;;;5.10;2.37;;;18.80;94.00;;;;;;10370658;28;20224;-71
2022/05/12 04:55:38;;;;;;;3.90;2.73;;;19.00;93.90;;;;;;10357294;28;20254;-70
2022/05/12 05:00:40;;;;;;;7.00;2.20;;;19.10;93.40;;;;;;10353093;28;20719;-70
2022/05/12 05:05:41;;;;;;;4.80;2.77;;;19.10;93.40;;;;;;10356683;28;20356;-70
2022/05/12 05:10:42;;;;;;;7.77;2.57;;;19.20;93.60;;;;;;10350671;28;20725;-72
2022/05/12 05:15:42;;;;;;;6.40;2.20;;;19.20;93.50;;;;;;10367473;28;20224;-68
2022/05/12 05:20:44;;;;;;;7.83;2.10;;;19.20;93.40;;;;;;10370320;28;20221;-69
2022/05/12 05:25:45;;;;;;;7.63;2.27;;;19.40;93.50;;;;;;10363955;28;20229;-68
2022/05/12 05:30:46;;;;;;;7.80;2.40;;;19.60;93.20;;;;;;10366862;28;20234;-68
2022/05/12 05:35:50;;;;;;;4.90;2.10;;;19.80;92.80;;;;;;10363048;28;20710;-68
2022/05/12 05:40:50;;;;;;;3.50;1.90;;;19.90;92.10;;;;;;10365741;28;20228;-68
2022/05/12 05:45:51;;;;;;;6.97;2.20;;;20.00;92.00;;;;;;10366794;28;20304;-69
2022/05/12 05:56:14;;;;;;;3.80;1.87;;;20.20;91.40;;;;;;10367927;28;20233;-71
2022/05/12 06:01:16;;;;;;;5.53;1.80;;;20.40;91.50;;;;;;10368348;28;20650;-70
2022/05/12 06:06:17;;;;;;;3.67;1.70;;;20.50;90.40;;;;;;10367897;28;20279;-71
2022/05/12 06:11:18;;;;;;;3.27;1.77;;;20.70;90.20;;;;;;10368691;28;20272;-71
2022/05/12 06:16:20;;;;;;;4.50;1.57;;;20.90;88.70;;;;;;10364870;28;20233;-70
2022/05/12 06:21:20;;;;;;;5.13;1.87;;;21.10;88.40;;;;;;10369662;28;20218;-69
2022/05/12 06:26:21;;;;;;;3.63;1.63;;;21.20;87.70;;;;;;10366056;28;20214;-70
2022/05/12 06:31:25;;;;;;;3.93;1.97;;;21.60;87.40;;;;;;10349242;28;20232;-70
2022/05/12 06:36:30;;;;;;;3.27;1.60;;;22.00;85.90;;;;;;10359069;28;20653;-70
2022/05/12 06:41:32;;;;;;;5.07;1.30;;;22.90;82.20;;;;;;10365516;28;20218;-69
2022/05/12 06:46:33;;;;;;;2.73;1.57;;;23.90;76.80;;;;;;10366116;28;20595;-69
2022/05/12 06:51:34;;;;;;;5.90;1.40;;;25.60;69.20;;;;;;10366662;28;20312;-70
2022/05/12 06:56:35;;;;;;;2.90;1.20;;;28.40;58.50;;;;;;10347810;28;20224;-69
2022/05/12 07:01:35;;;;;;;3.90;1.17;;;30.50;51.00;;;;;;10366053;28;20213;-69
2022/05/12 07:06:36;;;;;;;5.90;1.50;;;32.00;45.80;;;;;;10365151;28;20224;-70
2022/05/12 07:11:36;;;;;;;5.97;1.40;;;33.00;43.80;;;;;;10348557;28;20226;-71
2022/05/12 07:16:37;;;;;;;9.43;2.10;;;33.30;41.50;;;;;;10359623;28;20333;-71
2022/05/12 07:26:57;;;;;;;2.10;1.20;;;33.80;40.40;;;;;;10356221;28;20233;-69
2022/05/12 07:31:58;;;;;;;5.23;1.30;;;34.80;39.10;;;;;;10362736;28;20217;-69
2022/05/12 07:36:59;;;;;;;4.43;1.13;;;35.20;37.50;;;;;;10366853;28;20217;-72
2022/05/12 07:42:01;;;;;;;5.60;1.40;;;35.90;36.90;;;;;;10347600;28;20278;-71
2022/05/12 07:47:09;;;;;;;3.97;1.20;;;36.50;35.70;;;;;;10348107;28;20225;-71
2022/05/12 07:52:13;;;;;;;6.53;1.63;;;35.30;37.00;;;;;;10360650;28;20222;-70
2022/05/12 07:57:14;;;;;;;5.50;1.57;;;35.50;36.80;;;;;;10360371;28;20256;-71
2022/05/12 08:02:16;;;;;;;2.67;1.00;;;37.30;34.80;;;;;;10346747;28;20945;-71
2022/05/12 08:07:17;;;;;;;4.97;1.50;;;36.50;34.30;;;;;;10323162;28;20229;-71
2022/05/12 08:12:17;;;;;;;4.33;1.10;;;36.90;33.80;;;;;;10350057;28;20222;-70
2022/05/12 08:17:19;;;;;;;4.27;1.50;;;36.20;34.60;;;;;;10355422;28;20233;-70
2022/05/12 08:22:20;;;;;;;5.20;1.50;;;35.40;36.10;;;;;;10351350;28;20206;-70
2022/05/12 08:27:21;;;;;;;3.60;1.30;;;36.30;35.50;;;;;;10352262;28;20719;-69
2022/05/12 08:32:22;;;;;;;8.00;1.60;;;33.80;37.00;;;;;;10354138;28;20312;-70
2022/05/12 08:37:23;;;;;;;3.23;1.40;;;32.50;40.30;;;;;;10351595;28;20747;-69
2022/05/12 08:42:35;;;;;;;5.70;2.00;;;33.10;38.90;;;;;;10349587;28;20205;-69
2022/05/12 08:47:44;;;;;;;3.20;1.60;;;32.40;39.40;;;;;;10358812;28;20226;-70
2022/05/12 08:52:48;;;;;;;3.40;1.40;;;31.70;40.40;;;;;;10342958;28;20244;-69
2022/05/12 08:58:02;;;;;;;5.27;1.53;;;30.60;42.70;;;;;;10346457;28;20735;-70
2022/05/12 09:03:15;;;;;;;2.90;1.47;;;30.30;45.60;;;;;;10354349;28;20220;-68
2022/05/12 09:08:34;;;;;;;4.30;1.30;;;33.80;40.00;;;;;;10357785;28;20317;-68
2022/05/12 09:13:45;;;;;;;39.43;2.57;;;36.40;35.70;;;;;;10358348;28;20279;-69
2022/05/12 09:18:47;;;;;;;8.40;1.63;;;39.10;30.40;;;;;;10366088;28;20221;-69
2022/05/12 09:23:49;;;;;;;4.07;1.30;;;39.30;30.30;;;;;;10367515;28;20232;-69
2022/05/12 09:28:49;;;;;;;4.43;1.50;;;40.40;29.60;;;;;;10366932;28;20268;-71
2022/05/12 09:33:52;;;;;;;3.87;1.37;;;40.20;29.50;;;;;;10366131;28;20217;-70
2022/05/12 09:38:57;;;;;;;2.93;1.47;;;40.10;29.60;;;;;;10367449;28;20317;-69
2022/05/12 09:44:23;;;;;;;3.70;1.53;;;40.10;29.10;;;;;;10362180;28;20209;-71
2022/05/12 09:49:31;;;;;;;3.57;1.33;;;37.10;32.60;;;;;;10348240;28;20773;-71
2022/05/12 09:54:32;;;;;;;4.60;1.33;;;37.40;32.90;;;;;;10356427;28;20336;-69
2022/05/12 09:59:37;;;;;;;8.17;1.53;;;38.00;32.10;;;;;;10372147;28;20309;-69
2022/05/12 10:10:13;;;;;;;9.20;1.70;;;33.40;36.80;;;;;;10351998;28;20221;-71
2022/05/12 10:15:32;;;;;;;3.43;1.30;;;31.30;40.60;;;;;;10366137;28;20224;-69
2022/05/12 10:20:38;;;;;;;5.40;1.60;;;33.10;38.50;;;;;;10364270;28;20273;-69
2022/05/12 10:25:47;;;;;;;5.80;1.90;;;33.30;37.80;;;;;;10356974;28;20228;-71
2022/05/12 10:30:59;;;;;;;5.93;2.00;;;32.90;37.90;;;;;;10355896;28;20213;-71
2022/05/12 10:36:29;;;;;;;4.30;1.67;;;34.30;36.10;;;;;;10359631;28;20773;-70
2022/05/12 10:41:44;;;;;;;7.97;1.90;;;35.30;35.00;;;;;;10363487;28;20252;-70
2022/05/12 10:46:46;;;;;;;6.53;1.97;;;36.30;33.60;;;;;;10367124;28;20221;-69
2022/05/12 10:52:06;;;;;;;5.43;1.77;;;37.70;30.70;;;;;;10364760;28;20232;-69
2022/05/12 10:57:31;;;;;;;10.53;1.73;;;37.40;31.10;;;;;;10364007;28;20233;-70
2022/05/12 11:02:43;;;;;;;6.43;1.50;;;36.50;32.10;;;;;;10362996;28;20235;-70
2022/05/12 11:08:07;;;;;;;7.77;1.57;;;38.40;29.10;;;;;;10366327;28;20229;-71
2022/05/12 11:13:28;;;;;;;3.97;1.73;;;37.50;29.10;;;;;;10361129;28;20703;-71
2022/05/12 11:18:41;;;;;;;3.97;1.57;;;35.50;32.90;;;;;;10359834;28;20320;-69
2022/05/12 11:23:57;;;;;;;5.30;1.60;;;36.60;30.70;;;;;;10360358;28;20258;-70
2022/05/12 11:29:43;;;;;;;9.60;1.87;;;38.20;29.90;;;;;;10355231;28;20212;-69
2022/05/12 11:34:49;;;;;;;4.93;1.60;;;38.50;29.00;;;;;;10332398;28;20300;-69
2022/05/12 11:39:55;;;;;;;4.87;1.20;;;39.10;28.90;;;;;;10359517;28;20600;-71
2022/05/12 11:45:08;;;;;;;3.13;1.40;;;36.50;30.80;;;;;;10348198;28;20213;-71
2022/05/12 11:50:46;;;;;;;8.20;1.50;;;33.40;34.90;;;;;;10360726;28;20236;-70
2022/05/12 11:55:53;;;;;;;4.40;1.60;;;31.30;37.40;;;;;;10369080;28;20217;-71
2022/05/12 12:00:56;;;;;;;4.73;1.47;;;30.00;40.70;;;;;;10362965;28;20288;-71
2022/05/12 12:06:02;;;;;;;6.17;1.40;;;29.40;41.40;;;;;;10347090;28;20221;-71
2022/05/12 12:11:15;;;;;;;4.53;1.40;;;28.90;42.00;;;;;;10339802;28;20220;-72
2022/05/12 12:16:48;;;;;;;4.37;1.30;;;28.40;43.40;;;;;;10339041;28;20629;-72
2022/05/12 12:21:53;;;;;;;4.10;1.30;;;28.20;43.80;;;;;;10355222;28;20591;-71
2022/05/12 12:27:14;;;;;;;5.43;1.07;;;28.00;45.10;;;;;;10366491;28;20212;-71
2022/05/12 12:32:33;;;;;;;12.47;2.23;;;27.80;43.60;;;;;;10342516;28;20226;-71
2022/05/12 12:37:54;;;;;;;2.87;1.10;;;27.60;44.70;;;;;;10326806;28;20690;-70
2022/05/12 12:42:55;;;;;;;1.83;1.00;;;27.70;45.30;;;;;;10349077;28;20703;-71
2022/05/12 12:48:07;;;;;;;3.80;1.10;;;27.80;44.30;;;;;;10353267;28;20232;-70
2022/05/12 12:53:13;;;;;;;2.70;0.97;;;27.90;44.60;;;;;;10334497;28;20256;-71
2022/05/12 12:58:32;;;;;;;1.33;1.00;;;27.80;44.90;;;;;;10356293;28;20252;-71
2022/05/12 13:03:34;;;;;;;3.23;0.97;;;28.10;43.20;;;;;;10361309;28;20224;-70
2022/05/12 13:08:34;;;;;;;4.60;1.10;;;28.10;44.20;;;;;;10348841;28;20257;-70
2022/05/12 13:13:50;;;;;;;5.73;1.10;;;27.90;43.40;;;;;;10359605;28;20259;-71
2022/05/12 13:18:53;;;;;;;2.40;1.20;;;27.90;43.20;;;;;;10345647;28;20292;-72
2022/05/12 13:24:09;;;;;;;8.10;1.37;;;28.00;44.10;;;;;;10356735;28;20875;-71
2022/05/12 13:29:10;;;;;;;23.60;19.47;;;27.80;44.30;;;;;;10346882;28;20316;-71
2022/05/12 13:34:11;;;;;;;5.73;2.03;;;27.40;44.40;;;;;;10361762;28;20786;-70
2022/05/12 13:39:33;;;;;;;3.77;1.40;;;27.30;45.10;;;;;;10359035;28;20286;-70
2022/05/12 13:44:36;;;;;;;5.20;1.20;;;27.70;44.00;;;;;;10349383;28;20223;-70
2022/05/12 13:49:41;;;;;;;4.87;1.30;;;27.70;44.30;;;;;;10352204;28;20264;-71
2022/05/12 13:55:06;;;;;;;6.00;1.50;;;27.50;43.80;;;;;;10355609;28;20615;-70
2022/05/12 14:00:13;;;;;;;3.37;1.67;;;27.30;44.20;;;;;;10343519;28;20236;-71
2022/05/12 14:05:25;;;;;;;2.30;1.20;;;26.90;45.10;;;;;;10323891;28;1097154;-71
2022/05/12 14:10:50;;;;;;;4.90;1.83;;;26.80;44.70;;;;;;10363925;28;20573;-71
2022/05/12 14:21:17;;;;;;;3.60;1.20;;;26.90;44.30;;;;;;10360982;28;20581;-70
2022/05/12 14:26:18;;;;;;;4.30;1.43;;;27.10;44.90;;;;;;10363552;28;20228;-70
2022/05/12 14:31:23;;;;;;;11.83;1.53;;;27.20;44.30;;;;;;10349116;28;20230;-71
2022/05/12 14:36:24;;;;;;;5.30;1.23;;;26.70;44.40;;;;;;10362281;28;20278;-70
2022/05/12 14:41:26;;;;;;;5.53;1.20;;;26.60;45.20;;;;;;10365621;28;20261;-71
2022/05/12 14:46:35;;;;;;;12.37;1.70;;;26.80;44.80;;;;;;10360249;28;20256;-70
2022/05/12 14:51:37;;;;;;;4.70;1.13;;;26.80;44.10;;;;;;10368790;28;20229;-70
2022/05/12 14:56:37;;;;;;;4.03;1.33;;;26.60;44.10;;;;;;10363817;28;20231;-72
2022/05/12 15:01:38;;;;;;;5.27;1.13;;;26.40;44.80;;;;;;10367587;28;20308;-72
2022/05/12 15:06:39;;;;;;;5.03;1.43;;;26.20;44.60;;;;;;10367127;28;20219;-70
2022/05/12 15:11:40;;;;;;;4.23;1.30;;;26.30;45.50;;;;;;10362392;28;20263;-71
2022/05/12 15:16:41;;;;;;;3.90;1.10;;;26.40;44.50;;;;;;10361418;28;20309;-69
2022/05/12 15:21:42;;;;;;;5.10;1.33;;;26.20;44.60;;;;;;10363230;28;20220;-70
2022/05/12 15:26:43;;;;;;;11.23;1.40;;;25.90;45.70;;;;;;10364851;28;20231;-70
2022/05/12 15:31:44;;;;;;;5.83;1.17;;;25.90;45.30;;;;;;10366260;28;20221;-75
2022/05/12 15:36:45;;;;;;;3.57;1.13;;;26.00;44.80;;;;;;10352907;28;20923;-70
2022/05/12 15:41:50;;;;;;;2.20;1.27;;;26.30;44.90;;;;;;10348211;28;20601;-70
2022/05/12 15:47:03;;;;;;;10.20;1.47;;;26.20;44.30;;;;;;10367474;28;20221;-70
2022/05/12 15:52:06;;;;;;;6.20;1.40;;;26.10;44.90;;;;;;10358439;28;20271;-71
2022/05/12 15:57:06;;;;;;;4.73;1.20;;;25.90;45.60;;;;;;10345345;28;20221;-70
2022/05/12 16:02:13;;;;;;;3.53;0.97;;;25.60;46.00;;;;;;10365538;28;20303;-70
2022/05/12 16:07:14;;;;;;;3.63;1.17;;;25.60;46.70;;;;;;10360306;28;20221;-72
2022/05/12 16:17:26;;;;;;;5.53;1.20;;;25.50;46.80;;;;;;10364873;28;20248;-71
2022/05/12 16:22:27;;;;;;;3.10;1.67;;;25.20;47.00;;;;;;10361189;28;20218;-71
2022/05/12 16:27:29;;;;;;;5.50;1.20;;;25.10;47.40;;;;;;10358926;28;20229;-71
2022/05/12 16:32:30;;;;;;;6.30;1.53;;;24.90;47.60;;;;;;10360584;28;20228;-71
2022/05/12 16:37:30;;;;;;;2.57;1.40;;;24.80;47.50;;;;;;10361039;28;20248;-71
2022/05/12 16:42:31;;;;;;;7.67;1.70;;;24.80;47.80;;;;;;10361317;28;20319;-70
2022/05/12 16:47:32;;;;;;;6.37;1.80;;;25.00;47.70;;;;;;10343227;28;20221;-69
2022/05/12 16:52:33;;;;;;;7.20;2.27;;;24.90;47.40;;;;;;10359506;28;20210;-70
2022/05/12 16:57:36;;;;;;;7.50;2.77;;;24.80;48.30;;;;;;10360952;28;20232;-71
2022/05/12 17:02:37;;;;;;;5.10;2.40;;;24.60;48.40;;;;;;10342367;28;20221;-69
2022/05/12 17:07:37;;;;;;;4.20;2.80;;;24.40;48.50;;;;;;10360161;28;20676;-70
2022/05/12 17:12:38;;;;;;;4.83;2.47;;;24.30;49.10;;;;;;10358335;28;20312;-69
2022/05/12 17:17:42;;;;;;;4.90;2.33;;;24.20;49.50;;;;;;10342321;28;20222;-69
2022/05/12 17:22:44;;;;;;;4.10;2.17;;;24.20;49.30;;;;;;10357831;28;20372;-69
2022/05/12 17:27:47;;;;;;;4.17;1.50;;;24.00;49.30;;;;;;10361464;28;20230;-69
2022/05/12 17:32:48;;;;;;;5.77;1.43;;;23.90;50.00;;;;;;10358450;28;20221;-69
2022/05/12 17:37:49;;;;;;;1.87;1.10;;;23.90;50.20;;;;;;10343321;28;20233;-70
2022/05/12 17:42:50;;;;;;;5.30;1.10;;;23.90;50.00;;;;;;10361726;28;20324;-69
2022/05/12 17:47:50;;;;;;;5.23;1.33;;;23.90;50.40;;;;;;10362632;28;20225;-69
2022/05/12 17:52:51;;;;;;;3.73;1.33;;;24.00;50.00;;;;;;10362411;28;20222;-69
2022/05/12 17:57:51;;;;;;;3.97;1.30;;;24.00;50.30;;;;;;10357764;28;20228;-70
2022/05/12 18:02:52;;;;;;;5.23;1.20;;;23.90;50.90;;;;;;10348830;28;20221;-70
2022/05/12 18:07:53;;;;;;;4.83;1.30;;;23.80;51.60;;;;;;10364791;28;20232;-70
2022/05/12 18:12:53;;;;;;;3.70;1.20;;;23.60;51.00;;;;;;10363125;28;20225;-70
2022/05/12 18:17:54;;;;;;;2.50;1.10;;;23.40;51.20;;;;;;10364468;28;20225;-70
2022/05/12 18:22:54;;;;;;;7.13;1.57;;;23.30;51.60;;;;;;10363056;28;20571;-70
2022/05/12 18:27:56;;;;;;;6.73;1.20;;;23.20;51.90;;;;;;10347192;28;20332;-70
2022/05/12 18:32:59;;;;;;;6.40;1.40;;;23.20;52.40;;;;;;10363684;28;20284;-69
2022/05/12 18:38:00;;;;;;;6.67;1.33;;;23.10;52.70;;;;;;10364772;28;20295;-69
2022/05/12 18:43:01;;;;;;;2.77;1.30;;;23.00;53.20;;;;;;10362468;28;20210;-70
2022/05/12 18:48:01;;;;;;;5.10;1.20;;;22.80;53.50;;;;;;10362428;28;20236;-69
2022/05/12 18:53:03;;;;;;;9.70;1.37;;;22.60;54.30;;;;;;10364934;28;20227;-69
2022/05/12 18:58:08;;;;;;;4.50;1.30;;;22.40;54.80;;;;;;10363312;28;20233;-69
2022/05/12 19:03:09;;;;;;;2.57;0.90;;;22.20;54.90;;;;;;10345509;28;20225;-69
2022/05/12 19:08:10;;;;;;;5.87;1.27;;;22.00;54.80;;;;;;10362603;28;20574;-70
2022/05/12 19:13:11;;;;;;;4.17;1.33;;;21.90;54.70;;;;;;10363540;28;20236;-69
2022/05/12 19:18:14;;;;;;;1.80;1.00;;;21.70;54.90;;;;;;10344943;28;20819;-69
2022/05/12 19:23:16;;;;;;;2.53;1.00;;;21.70;55.20;;;;;;10362580;28;20232;-69
2022/05/12 19:28:18;;;;;;;5.97;1.30;;;21.50;55.40;;;;;;10345417;28;20225;-69
2022/05/12 19:33:19;;;;;;;3.33;1.27;;;21.40;55.50;;;;;;10365185;28;20221;-70
2022/05/12 19:38:20;;;;;;;7.83;2.03;;;21.30;55.70;;;;;;10358747;28;20229;-69
2022/05/12 19:43:20;;;;;;;3.60;1.30;;;21.20;55.90;;;;;;10364172;28;20213;-70
2022/05/12 19:48:23;;;;;;;5.80;1.10;;;21.10;56.20;;;;;;10349498;28;20221;-70
2022/05/12 19:53:27;;;;;;;2.73;1.00;;;21.00;56.40;;;;;;10367586;28;20221;-70
2022/05/12 19:58:27;;;;;;;3.93;1.53;;;21.00;56.70;;;;;;10366583;28;20603;-69
2022/05/12 20:03:28;;;;;;;4.70;1.30;;;20.90;56.90;;;;;;10362428;28;20225;-71
2022/05/12 20:08:29;;;;;;;3.57;1.20;;;20.90;57.00;;;;;;10363498;28;20229;-70
2022/05/12 20:13:29;;;;;;;10.27;1.40;;;20.80;57.40;;;;;;10363256;28;20232;-70
2022/05/12 20:18:30;;;;;;;2.77;1.03;;;20.80;57.90;;;;;;10352002;28;20237;-71
2022/05/12 20:23:31;;;;;;;4.00;1.30;;;20.70;58.10;;;;;;10342706;28;20812;-73
2022/05/12 20:28:33;;;;;;;6.30;1.30;;;20.70;58.40;;;;;;10354633;28;20224;-72
2022/05/12 20:33:34;;;;;;;6.50;1.50;;;20.60;58.70;;;;;;10350213;28;20312;-73
2022/05/12 20:38:34;;;;;;;5.63;1.30;;;20.60;59.00;;;;;;10344505;28;20230;-70
2022/05/12 20:43:35;;;;;;;4.60;1.30;;;20.50;59.20;;;;;;10350235;28;20225;-71
2022/05/12 20:48:39;;;;;;;4.80;1.40;;;20.40;59.60;;;;;;10347886;28;20228;-72
2022/05/12 20:53:45;;;;;;;2.50;1.13;;;20.30;59.80;;;;;;10343077;28;20217;-72
2022/05/12 20:58:47;;;;;;;24.60;2.40;;;20.30;60.20;;;;;;10341740;28;20617;-70
2022/05/12 21:03:47;;;;;;;4.43;1.77;;;20.20;61.20;;;;;;10366385;28;20267;-72
2022/05/12 21:08:49;;;;;;;5.50;1.40;;;20.10;61.00;;;;;;10363897;28;20303;-72
2022/05/12 21:13:50;;;;;;;4.30;1.40;;;20.10;61.80;;;;;;10360320;28;20220;-70
2022/05/12 21:18:51;;;;;;;4.70;1.57;;;20.10;62.10;;;;;;10357992;28;20221;-72
2022/05/12 21:23:52;;;;;;;5.17;1.90;;;20.00;62.70;;;;;;10350457;28;20217;-72
2022/05/12 21:28:52;;;;;;;3.30;1.20;;;19.90;63.20;;;;;;10372158;28;20218;-72
2022/05/12 21:33:53;;;;;;;5.97;1.60;;;19.90;63.50;;;;;;10340449;28;20316;-73
2022/05/12 21:38:54;;;;;;;6.20;1.57;;;19.80;64.10;;;;;;10349163;28;20256;-73
2022/05/12 21:43:56;;;;;;;4.50;1.47;;;19.70;64.50;;;;;;10371229;28;20257;-75
2022/05/12 21:48:57;;;;;;;5.60;1.97;;;19.70;65.20;;;;;;10360724;28;21058;-73
2022/05/12 21:54:00;;;;;;;3.83;1.53;;;19.70;65.60;;;;;;10359859;28;20313;-74
2022/05/12 22:04:28;;;;;;;3.37;1.27;;;19.60;66.00;;;;;;10361643;28;20217;-74
2022/05/12 22:09:32;;;;;;;4.63;1.40;;;19.50;66.20;;;;;;10369655;28;20237;-73
2022/05/12 22:14:37;;;;;;;5.30;1.50;;;19.40;66.80;;;;;;10347012;28;21379;-73
2022/05/12 22:19:41;;;;;;;3.50;1.03;;;19.40;67.20;;;;;;10360118;28;20777;-74
2022/05/12 22:24:42;;;;;;;3.37;1.60;;;19.40;67.60;;;;;;10347911;28;20224;-72
2022/05/12 22:29:43;;;;;;;4.37;1.53;;;19.30;68.20;;;;;;10341010;28;20217;-75
2022/05/12 22:34:44;;;;;;;4.43;1.57;;;19.20;68.60;;;;;;10341989;28;20224;-73
2022/05/12 22:39:46;;;;;;;3.53;1.40;;;19.20;69.20;;;;;;10349070;28;20233;-73
2022/05/12 22:44:47;;;;;;;3.13;1.50;;;18.90;69.90;;;;;;10339516;28;20620;-74
2022/05/12 22:49:47;;;;;;;3.70;1.40;;;18.90;70.80;;;;;;10361462;28;20278;-74
2022/05/12 22:54:48;;;;;;;3.27;1.20;;;18.80;70.90;;;;;;10361058;28;20697;-74
2022/05/12 22:59:49;;;;;;;4.33;1.50;;;18.80;71.50;;;;;;10363441;28;20239;-74
2022/05/12 23:04:50;;;;;;;3.50;1.20;;;18.70;72.30;;;;;;10357392;28;20304;-73
2022/05/12 23:09:54;;;;;;;2.77;1.50;;;18.50;72.80;;;;;;10357920;28;20317;-75
2022/05/12 23:14:54;;;;;;;3.70;1.83;;;18.40;73.60;;;;;;10343888;28;20225;-74
2022/05/12 23:25:14;;;;;;;5.33;1.43;;;18.20;74.80;;;;;;10360307;28;20296;-74
2022/05/12 23:30:15;;;;;;;4.17;1.53;;;18.20;75.50;;;;;;10365297;28;20193;-74
2022/05/12 23:35:18;;;;;;;4.67;1.47;;;18.00;76.20;;;;;;10340992;28;20276;-76
2022/05/12 23:40:19;;;;;;;4.07;1.50;;;17.90;77.00;;;;;;10359860;28;20256;-76
2022/05/12 23:45:21;;;;;;;5.77;1.40;;;17.70;77.90;;;;;;10350860;28;20243;-73
2022/05/12 23:50:25;;;;;;;4.03;1.67;;;17.70;78.60;;;;;;10349710;28;20280;-73
2022/05/12 23:55:26;;;;;;;3.70;1.40;;;17.50;79.40;;;;;;10346603;28;20322;-75
